sensor_id;sensor_type;location;lat;lon;timestamp;P1;durP1;ratioP1;P2;durP2;ratioP2
56343;SDS011;42245;42.058;24.700;2023-03-14T05:25:52;13.10;;;7.13;;
56343;SDS011;42245;42.058;24.700;2023-03-14T05:28:17;10.67;;;6.70;;
56343;SDS011;42245;42.058;24.700;2023-03-14T05:30:42;14.03;;;7.00;;
56343;SDS011;42245;42.058;24.700;2023-03-14T05:33:08;13.37;;;7.10;;
56343;SDS011;42245;42.058;24.700;2023-03-14T05:35:33;14.13;;;7.50;;
56343;SDS011;42245;42.058;24.700;2023-03-14T05:37:59;12.13;;;6.70;;
56343;SDS011;42245;42.058;24.700;2023-03-14T05:40:24;11.47;;;6.50;;
56343;SDS011;42245;42.058;24.700;2023-03-14T05:42:50;14.63;;;6.43;;
56343;SDS011;42245;42.058;24.700;2023-03-14T05:45:16;10.30;;;6.60;;
56343;SDS011;42245;42.058;24.700;2023-03-14T05:47:41;20.07;;;7.67;;
56343;SDS011;42245;42.058;24.700;2023-03-14T05:50:07;15.13;;;7.30;;
56343;SDS011;42245;42.058;24.700;2023-03-14T05:52:33;16.20;;;7.10;;
56343;SDS011;42245;42.058;24.700;2023-03-14T05:54:58;26.27;;;10.97;;
56343;SDS011;42245;42.058;24.700;2023-03-14T05:57:23;12.83;;;7.97;;
56343;SDS011;42245;42.058;24.700;2023-03-14T05:59:49;16.33;;;9.43;;
56343;SDS011;42245;42.058;24.700;2023-03-14T06:02:14;18.57;;;9.03;;
56343;SDS011;42245;42.058;24.700;2023-03-14T06:04:39;18.13;;;9.13;;
56343;SDS011;42245;42.058;24.700;2023-03-14T06:07:05;17.00;;;9.47;;
56343;SDS011;42245;42.058;24.700;2023-03-14T06:09:30;18.40;;;9.50;;
56343;SDS011;42245;42.058;24.700;2023-03-14T06:11:55;17.67;;;9.20;;
56343;SDS011;42245;42.058;24.700;2023-03-14T06:14:21;13.83;;;9.17;;
56343;SDS011;42245;42.058;24.700;2023-03-14T06:16:46;16.17;;;9.63;;
56343;SDS011;42245;42.058;24.700;2023-03-14T06:19:14;14.43;;;9.30;;
56343;SDS011;42245;42.058;24.700;2023-03-14T06:21:39;14.93;;;9.10;;
56343;SDS011;42245;42.058;24.700;2023-03-14T06:24:04;16.33;;;9.70;;
56343;SDS011;42245;42.058;24.700;2023-03-14T06:26:30;14.00;;;9.40;;
56343;SDS011;42245;42.058;24.700;2023-03-14T06:28:55;16.85;;;10.13;;
56343;SDS011;42245;42.058;24.700;2023-03-14T06:31:21;17.55;;;10.38;;
56343;SDS011;42245;42.058;24.700;2023-03-14T06:33:46;15.43;;;9.43;;
56343;SDS011;42245;42.058;24.700;2023-03-14T06:36:11;16.88;;;10.23;;
56343;SDS011;42245;42.058;24.700;2023-03-14T06:38:37;30.25;;;12.35;;
56343;SDS011;42245;42.058;24.700;2023-03-14T06:41:06;24.95;;;13.98;;
56343;SDS011;42245;42.058;24.700;2023-03-14T06:43:32;44.17;;;14.50;;
56343;SDS011;42245;42.058;24.700;2023-03-14T06:45:57;24.30;;;12.15;;
56343;SDS011;42245;42.058;24.700;2023-03-14T06:48:23;22.90;;;11.65;;
56343;SDS011;42245;42.058;24.700;2023-03-14T06:50:48;23.83;;;13.02;;
56343;SDS011;42245;42.058;24.700;2023-03-14T06:53:14;22.02;;;12.18;;
56343;SDS011;42245;42.058;24.700;2023-03-14T06:55:39;20.08;;;12.38;;
56343;SDS011;42245;42.058;24.700;2023-03-14T06:58:05;22.17;;;12.98;;
56343;SDS011;42245;42.058;24.700;2023-03-14T07:00:33;20.42;;;12.98;;
56343;SDS011;42245;42.058;24.700;2023-03-14T07:02:58;20.40;;;12.60;;
56343;SDS011;42245;42.058;24.700;2023-03-14T07:05:24;29.98;;;12.82;;
56343;SDS011;42245;42.058;24.700;2023-03-14T07:07:49;29.95;;;11.82;;
56343;SDS011;42245;42.058;24.700;2023-03-14T07:10:15;24.33;;;12.30;;
56343;SDS011;42245;42.058;24.700;2023-03-14T07:12:40;19.75;;;11.20;;
56343;SDS011;42245;42.058;24.700;2023-03-14T07:15:06;15.55;;;10.27;;
56343;SDS011;42245;42.058;24.700;2023-03-14T07:17:32;19.00;;;10.68;;
56343;SDS011;42245;42.058;24.700;2023-03-14T07:19:57;20.50;;;10.82;;
56343;SDS011;42245;42.058;24.700;2023-03-14T07:22:24;17.65;;;9.95;;
56343;SDS011;42245;42.058;24.700;2023-03-14T07:24:49;19.80;;;11.00;;
56343;SDS011;42245;42.058;24.700;2023-03-14T07:27:15;18.90;;;10.20;;
56343;SDS011;42245;42.058;24.700;2023-03-14T07:29:40;21.77;;;10.02;;
56343;SDS011;42245;42.058;24.700;2023-03-14T07:32:05;18.73;;;10.50;;
56343;SDS011;42245;42.058;24.700;2023-03-14T07:34:31;21.63;;;10.80;;
56343;SDS011;42245;42.058;24.700;2023-03-14T07:36:56;17.30;;;10.82;;
56343;SDS011;42245;42.058;24.700;2023-03-14T07:39:22;18.90;;;11.32;;
56343;SDS011;42245;42.058;24.700;2023-03-14T07:41:47;15.23;;;10.75;;
56343;SDS011;42245;42.058;24.700;2023-03-14T07:44:12;26.15;;;11.60;;
56343;SDS011;42245;42.058;24.700;2023-03-14T07:46:38;27.67;;;11.02;;
56343;SDS011;42245;42.058;24.700;2023-03-14T07:49:03;25.42;;;10.57;;
56343;SDS011;42245;42.058;24.700;2023-03-14T07:51:28;15.48;;;9.75;;
56343;SDS011;42245;42.058;24.700;2023-03-14T07:53:54;16.23;;;9.77;;
56343;SDS011;42245;42.058;24.700;2023-03-14T07:56:19;20.92;;;10.60;;
56343;SDS011;42245;42.058;24.700;2023-03-14T07:58:44;18.67;;;10.00;;
56343;SDS011;42245;42.058;24.700;2023-03-14T08:01:10;15.50;;;9.27;;
56343;SDS011;42245;42.058;24.700;2023-03-14T08:03:35;24.85;;;10.50;;
56343;SDS011;42245;42.058;24.700;2023-03-14T08:06:01;16.95;;;10.25;;
56343;SDS011;42245;42.058;24.700;2023-03-14T08:08:26;15.93;;;10.70;;
56343;SDS011;42245;42.058;24.700;2023-03-14T08:10:51;17.85;;;10.25;;
56343;SDS011;42245;42.058;24.700;2023-03-14T08:13:17;19.67;;;10.85;;
56343;SDS011;42245;42.058;24.700;2023-03-14T08:15:42;21.98;;;11.45;;
56343;SDS011;42245;42.058;24.700;2023-03-14T08:18:07;15.32;;;10.70;;
56343;SDS011;42245;42.058;24.700;2023-03-14T08:20:33;16.38;;;10.65;;
56343;SDS011;42245;42.058;24.700;2023-03-14T08:22:59;22.42;;;11.65;;
56343;SDS011;42245;42.058;24.700;2023-03-14T08:25:25;14.88;;;9.35;;
56343;SDS011;42245;42.058;24.700;2023-03-14T08:27:51;20.38;;;10.13;;
56343;SDS011;42245;42.058;24.700;2023-03-14T08:30:17;15.30;;;8.65;;
56343;SDS011;42245;42.058;24.700;2023-03-14T08:32:44;18.40;;;9.07;;
56343;SDS011;42245;42.058;24.700;2023-03-14T08:35:09;10.20;;;7.97;;
56343;SDS011;42245;42.058;24.700;2023-03-14T08:37:35;10.57;;;8.05;;
56343;SDS011;42245;42.058;24.700;2023-03-14T08:40:01;14.20;;;8.90;;
56343;SDS011;42245;42.058;24.700;2023-03-14T08:42:31;13.90;;;8.90;;
56343;SDS011;42245;42.058;24.700;2023-03-14T08:44:57;13.30;;;8.75;;
56343;SDS011;42245;42.058;24.700;2023-03-14T08:47:22;16.02;;;8.73;;
56343;SDS011;42245;42.058;24.700;2023-03-14T08:49:48;10.18;;;7.72;;
56343;SDS011;42245;42.058;24.700;2023-03-14T08:52:13;13.82;;;8.55;;
56343;SDS011;42245;42.058;24.700;2023-03-14T08:54:41;17.55;;;8.25;;
56343;SDS011;42245;42.058;24.700;2023-03-14T08:57:07;14.63;;;8.00;;
56343;SDS011;42245;42.058;24.700;2023-03-14T08:59:32;13.27;;;7.88;;
56343;SDS011;42245;42.058;24.700;2023-03-14T09:01:57;12.90;;;8.07;;
56343;SDS011;42245;42.058;24.700;2023-03-14T09:04:23;14.30;;;8.02;;
56343;SDS011;42245;42.058;24.700;2023-03-14T09:06:48;26.00;;;9.27;;
56343;SDS011;42245;42.058;24.700;2023-03-14T09:09:13;13.75;;;7.50;;
56343;SDS011;42245;42.058;24.700;2023-03-14T09:11:39;12.60;;;7.45;;
56343;SDS011;42245;42.058;24.700;2023-03-14T09:14:05;13.27;;;7.68;;
56343;SDS011;42245;42.058;24.700;2023-03-14T09:16:30;12.57;;;7.88;;
56343;SDS011;42245;42.058;24.700;2023-03-14T09:18:55;12.02;;;8.27;;
56343;SDS011;42245;42.058;24.700;2023-03-14T09:21:24;14.90;;;8.10;;
56343;SDS011;42245;42.058;24.700;2023-03-14T09:23:50;10.35;;;7.32;;
56343;SDS011;42245;42.058;24.700;2023-03-14T09:26:16;13.35;;;7.93;;
56343;SDS011;42245;42.058;24.700;2023-03-14T09:28:41;14.07;;;7.95;;
56343;SDS011;42245;42.058;24.700;2023-03-14T09:31:10;14.57;;;8.00;;
56343;SDS011;42245;42.058;24.700;2023-03-14T09:33:35;12.07;;;7.72;;
56343;SDS011;42245;42.058;24.700;2023-03-14T09:36:01;9.32;;;6.88;;
56343;SDS011;42245;42.058;24.700;2023-03-14T09:38:27;15.93;;;7.65;;
56343;SDS011;42245;42.058;24.700;2023-03-14T09:40:53;11.45;;;7.65;;
56343;SDS011;42245;42.058;24.700;2023-03-14T09:43:18;14.70;;;7.70;;
56343;SDS011;42245;42.058;24.700;2023-03-14T09:45:45;12.20;;;7.70;;
56343;SDS011;42245;42.058;24.700;2023-03-14T09:48:24;15.05;;;7.82;;
56343;SDS011;42245;42.058;24.700;2023-03-14T09:50:56;11.30;;;7.13;;
56343;SDS011;42245;42.058;24.700;2023-03-14T09:53:24;18.90;;;7.80;;
56343;SDS011;42245;42.058;24.700;2023-03-14T09:55:52;22.42;;;8.45;;
56343;SDS011;42245;42.058;24.700;2023-03-14T09:58:22;13.98;;;7.65;;
56343;SDS011;42245;42.058;24.700;2023-03-14T10:00:52;13.10;;;7.55;;
56343;SDS011;42245;42.058;24.700;2023-03-14T10:03:31;11.48;;;7.90;;
56343;SDS011;42245;42.058;24.700;2023-03-14T10:05:57;18.90;;;7.88;;
56343;SDS011;42245;42.058;24.700;2023-03-14T10:08:23;12.25;;;6.75;;
56343;SDS011;42245;42.058;24.700;2023-03-14T10:10:48;12.52;;;7.47;;
56343;SDS011;42245;42.058;24.700;2023-03-14T10:13:18;12.38;;;7.78;;
56343;SDS011;42245;42.058;24.700;2023-03-14T10:15:54;19.95;;;8.38;;
56343;SDS011;42245;42.058;24.700;2023-03-14T10:18:22;12.48;;;7.15;;
56343;SDS011;42245;42.058;24.700;2023-03-14T10:20:48;10.07;;;6.90;;
56343;SDS011;42245;42.058;24.700;2023-03-14T10:25:41;10.55;;;7.25;;
56343;SDS011;42245;42.058;24.700;2023-03-14T10:28:22;11.55;;;7.63;;
56343;SDS011;42245;42.058;24.700;2023-03-14T10:30:48;12.77;;;7.38;;
56343;SDS011;42245;42.058;24.700;2023-03-14T10:35:42;14.88;;;7.93;;
56343;SDS011;42245;42.058;24.700;2023-03-14T10:38:11;16.42;;;8.00;;
56343;SDS011;42245;42.058;24.700;2023-03-14T10:40:38;12.15;;;7.80;;
56343;SDS011;42245;42.058;24.700;2023-03-14T10:43:05;12.88;;;7.60;;
56343;SDS011;42245;42.058;24.700;2023-03-14T10:45:33;10.77;;;7.57;;
56343;SDS011;42245;42.058;24.700;2023-03-14T10:48:17;13.13;;;7.60;;
56343;SDS011;42245;42.058;24.700;2023-03-14T10:51:06;11.68;;;6.68;;
56343;SDS011;42245;42.058;24.700;2023-03-14T10:54:01;12.25;;;7.90;;
56343;SDS011;42245;42.058;24.700;2023-03-14T10:56:33;12.00;;;6.60;;
56343;SDS011;42245;42.058;24.700;2023-03-14T10:59:01;16.17;;;9.90;;
56343;SDS011;42245;42.058;24.700;2023-03-14T11:07:04;9.63;;;7.05;;
56343;SDS011;42245;42.058;24.700;2023-03-14T11:12:45;11.20;;;6.70;;
56343;SDS011;42245;42.058;24.700;2023-03-14T11:24:14;12.70;;;6.60;;
56343;SDS011;42245;42.058;24.700;2023-03-14T11:29:25;8.68;;;6.47;;
56343;SDS011;42245;42.058;24.700;2023-03-14T11:31:58;11.13;;;6.78;;
56343;SDS011;42245;42.058;24.700;2023-03-14T11:34:34;12.43;;;6.72;;
56343;SDS011;42245;42.058;24.700;2023-03-14T11:37:05;16.02;;;8.10;;
56343;SDS011;42245;42.058;24.700;2023-03-14T11:39:38;11.23;;;7.28;;
56343;SDS011;42245;42.058;24.700;2023-03-14T11:42:04;16.05;;;8.20;;
56343;SDS011;42245;42.058;24.700;2023-03-14T11:44:37;14.38;;;7.80;;
56343;SDS011;42245;42.058;24.700;2023-03-14T11:52:30;14.43;;;9.05;;
56343;SDS011;42245;42.058;24.700;2023-03-14T11:55:00;13.02;;;7.40;;
56343;SDS011;42245;42.058;24.700;2023-03-14T11:57:30;12.98;;;7.50;;
56343;SDS011;42245;42.058;24.700;2023-03-14T12:10:50;10.90;;;7.22;;
56343;SDS011;42245;42.058;24.700;2023-03-14T12:13:19;9.05;;;6.80;;
56343;SDS011;42245;42.058;24.700;2023-03-14T12:18:18;14.00;;;7.13;;
56343;SDS011;42245;42.058;24.700;2023-03-14T12:20:54;10.00;;;6.88;;
56343;SDS011;42245;42.058;24.700;2023-03-14T12:23:22;14.48;;;6.50;;
56343;SDS011;42245;42.058;24.700;2023-03-14T12:25:48;11.52;;;7.90;;
56343;SDS011;42245;42.058;24.700;2023-03-14T12:28:37;13.15;;;7.28;;
56343;SDS011;42245;42.058;24.700;2023-03-14T12:32:05;16.95;;;7.07;;
56343;SDS011;42245;42.058;24.700;2023-03-14T12:44:41;11.30;;;7.28;;
56343;SDS011;42245;42.058;24.700;2023-03-14T12:49:43;10.48;;;7.53;;
56343;SDS011;42245;42.058;24.700;2023-03-14T12:52:28;14.23;;;7.32;;
56343;SDS011;42245;42.058;24.700;2023-03-14T12:55:10;11.00;;;7.18;;
56343;SDS011;42245;42.058;24.700;2023-03-14T12:57:42;11.75;;;7.07;;
56343;SDS011;42245;42.058;24.700;2023-03-14T13:02:42;11.23;;;6.70;;
56343;SDS011;42245;42.058;24.700;2023-03-14T13:10:13;13.32;;;6.88;;
56343;SDS011;42245;42.058;24.700;2023-03-14T13:18:11;12.27;;;7.38;;
56343;SDS011;42245;42.058;24.700;2023-03-14T13:20:44;13.57;;;7.30;;
56343;SDS011;42245;42.058;24.700;2023-03-14T13:23:24;14.02;;;6.28;;
56343;SDS011;42245;42.058;24.700;2023-03-14T13:25:51;9.57;;;5.65;;
56343;SDS011;42245;42.058;24.700;2023-03-14T13:28:17;13.63;;;6.43;;
56343;SDS011;42245;42.058;24.700;2023-03-14T13:30:44;11.77;;;6.28;;
56343;SDS011;42245;42.058;24.700;2023-03-14T13:33:15;9.32;;;6.47;;
56343;SDS011;42245;42.058;24.700;2023-03-14T13:35:45;10.38;;;6.13;;
56343;SDS011;42245;42.058;24.700;2023-03-14T13:38:21;17.10;;;8.82;;
56343;SDS011;42245;42.058;24.700;2023-03-14T13:40:48;11.32;;;6.20;;
56343;SDS011;42245;42.058;24.700;2023-03-14T13:48:35;8.68;;;5.82;;
56343;SDS011;42245;42.058;24.700;2023-03-14T13:51:07;7.97;;;5.60;;
56343;SDS011;42245;42.058;24.700;2023-03-14T13:56:09;10.18;;;5.32;;
56343;SDS011;42245;42.058;24.700;2023-03-14T13:58:36;10.75;;;6.00;;
56343;SDS011;42245;42.058;24.700;2023-03-14T14:01:25;11.05;;;6.07;;
56343;SDS011;42245;42.058;24.700;2023-03-14T14:03:49;12.07;;;6.47;;
56343;SDS011;42245;42.058;24.700;2023-03-14T14:06:25;8.98;;;5.32;;
56343;SDS011;42245;42.058;24.700;2023-03-14T14:08:52;10.32;;;6.68;;
56343;SDS011;42245;42.058;24.700;2023-03-14T14:11:20;10.00;;;5.80;;
56343;SDS011;42245;42.058;24.700;2023-03-14T14:13:53;7.18;;;5.20;;
56343;SDS011;42245;42.058;24.700;2023-03-14T14:16:19;9.02;;;5.75;;
56343;SDS011;42245;42.058;24.700;2023-03-14T14:18:46;10.43;;;6.22;;
56343;SDS011;42245;42.058;24.700;2023-03-14T14:21:11;12.82;;;7.30;;
56343;SDS011;42245;42.058;24.700;2023-03-14T14:23:38;8.85;;;5.78;;
56343;SDS011;42245;42.058;24.700;2023-03-14T14:26:04;10.80;;;6.43;;
56343;SDS011;42245;42.058;24.700;2023-03-14T14:28:31;10.93;;;6.00;;
56343;SDS011;42245;42.058;24.700;2023-03-14T14:30:59;10.75;;;5.78;;
56343;SDS011;42245;42.058;24.700;2023-03-14T14:33:25;9.73;;;5.75;;
56343;SDS011;42245;42.058;24.700;2023-03-14T14:35:52;9.43;;;4.95;;
56343;SDS011;42245;42.058;24.700;2023-03-14T14:38:20;9.98;;;5.80;;
56343;SDS011;42245;42.058;24.700;2023-03-14T14:40:46;10.13;;;5.45;;
56343;SDS011;42245;42.058;24.700;2023-03-14T14:43:18;9.32;;;6.35;;
56343;SDS011;42245;42.058;24.700;2023-03-14T14:45:55;8.15;;;5.55;;
56343;SDS011;42245;42.058;24.700;2023-03-14T14:48:23;8.70;;;5.82;;
56343;SDS011;42245;42.058;24.700;2023-03-14T14:50:53;10.30;;;5.78;;
56343;SDS011;42245;42.058;24.700;2023-03-14T14:53:27;10.20;;;5.85;;
56343;SDS011;42245;42.058;24.700;2023-03-14T14:55:55;12.77;;;6.35;;
56343;SDS011;42245;42.058;24.700;2023-03-14T14:58:23;10.13;;;5.88;;
56343;SDS011;42245;42.058;24.700;2023-03-14T15:01:14;12.35;;;5.90;;
56343;SDS011;42245;42.058;24.700;2023-03-14T15:03:43;13.73;;;6.20;;
56343;SDS011;42245;42.058;24.700;2023-03-14T15:06:13;9.27;;;6.97;;
56343;SDS011;42245;42.058;24.700;2023-03-14T15:08:39;10.10;;;6.50;;
56343;SDS011;42245;42.058;24.700;2023-03-14T15:11:05;10.82;;;7.32;;
56343;SDS011;42245;42.058;24.700;2023-03-14T15:13:30;9.70;;;6.95;;
56343;SDS011;42245;42.058;24.700;2023-03-14T15:15:56;11.82;;;7.32;;
56343;SDS011;42245;42.058;24.700;2023-03-14T15:18:22;11.18;;;6.30;;
56343;SDS011;42245;42.058;24.700;2023-03-14T15:20:49;11.57;;;6.15;;
56343;SDS011;42245;42.058;24.700;2023-03-14T15:23:15;11.45;;;6.10;;
56343;SDS011;42245;42.058;24.700;2023-03-14T15:25:42;9.07;;;5.78;;
56343;SDS011;42245;42.058;24.700;2023-03-14T15:28:20;11.00;;;5.57;;
56343;SDS011;42245;42.058;24.700;2023-03-14T15:30:51;8.27;;;5.60;;
56343;SDS011;42245;42.058;24.700;2023-03-14T15:33:18;9.35;;;5.45;;
56343;SDS011;42245;42.058;24.700;2023-03-14T15:35:44;12.90;;;5.63;;
56343;SDS011;42245;42.058;24.700;2023-03-14T15:38:14;11.45;;;5.22;;
56343;SDS011;42245;42.058;24.700;2023-03-14T15:40:41;9.95;;;5.88;;
56343;SDS011;42245;42.058;24.700;2023-03-14T15:43:07;13.50;;;7.50;;
56343;SDS011;42245;42.058;24.700;2023-03-14T15:45:32;11.60;;;6.63;;
56343;SDS011;42245;42.058;24.700;2023-03-14T15:47:58;9.70;;;5.07;;
56343;SDS011;42245;42.058;24.700;2023-03-14T15:50:23;8.20;;;5.18;;
56343;SDS011;42245;42.058;24.700;2023-03-14T15:52:50;6.68;;;4.75;;
56343;SDS011;42245;42.058;24.700;2023-03-14T15:55:15;11.77;;;5.20;;
56343;SDS011;42245;42.058;24.700;2023-03-14T15:57:42;12.30;;;6.00;;
56343;SDS011;42245;42.058;24.700;2023-03-14T16:00:12;11.43;;;6.97;;
56343;SDS011;42245;42.058;24.700;2023-03-14T16:02:39;17.42;;;7.15;;
56343;SDS011;42245;42.058;24.700;2023-03-14T16:05:07;19.67;;;6.63;;
56343;SDS011;42245;42.058;24.700;2023-03-14T16:07:33;8.55;;;6.28;;
56343;SDS011;42245;42.058;24.700;2023-03-14T16:09:59;23.83;;;19.30;;
56343;SDS011;42245;42.058;24.700;2023-03-14T16:12:24;14.48;;;7.15;;
56343;SDS011;42245;42.058;24.700;2023-03-14T16:14:49;29.63;;;6.60;;
56343;SDS011;42245;42.058;24.700;2023-03-14T16:17:15;28.25;;;9.90;;
56343;SDS011;42245;42.058;24.700;2023-03-14T16:19:40;54.13;;;9.02;;
56343;SDS011;42245;42.058;24.700;2023-03-14T16:22:05;35.80;;;6.28;;
56343;SDS011;42245;42.058;24.700;2023-03-14T16:24:31;36.75;;;9.90;;
56343;SDS011;42245;42.058;24.700;2023-03-14T16:26:56;36.80;;;5.80;;
56343;SDS011;42245;42.058;24.700;2023-03-14T16:29:22;34.05;;;5.40;;
56343;SDS011;42245;42.058;24.700;2023-03-14T16:31:47;16.80;;;4.68;;
56343;SDS011;42245;42.058;24.700;2023-03-14T16:34:12;8.88;;;4.10;;
56343;SDS011;42245;42.058;24.700;2023-03-14T16:36:38;18.92;;;4.50;;
56343;SDS011;42245;42.058;24.700;2023-03-14T16:39:03;9.70;;;3.88;;
56343;SDS011;42245;42.058;24.700;2023-03-14T16:41:29;9.90;;;5.30;;
56343;SDS011;42245;42.058;24.700;2023-03-14T16:43:58;12.23;;;3.70;;
56343;SDS011;42245;42.058;24.700;2023-03-14T16:46:23;9.80;;;4.07;;
56343;SDS011;42245;42.058;24.700;2023-03-14T16:48:51;17.38;;;3.92;;
56343;SDS011;42245;42.058;24.700;2023-03-14T16:51:16;8.45;;;3.50;;
56343;SDS011;42245;42.058;24.700;2023-03-14T16:53:42;13.27;;;4.05;;
56343;SDS011;42245;42.058;24.700;2023-03-14T16:56:08;5.22;;;3.30;;
56343;SDS011;42245;42.058;24.700;2023-03-14T16:58:33;6.60;;;3.50;;
56343;SDS011;42245;42.058;24.700;2023-03-14T17:00:59;6.50;;;3.30;;
56343;SDS011;42245;42.058;24.700;2023-03-14T17:03:34;5.80;;;3.35;;
56343;SDS011;42245;42.058;24.700;2023-03-14T17:06:03;11.50;;;3.17;;
56343;SDS011;42245;42.058;24.700;2023-03-14T17:08:29;10.07;;;3.30;;
56343;SDS011;42245;42.058;24.700;2023-03-14T17:10:55;6.00;;;2.85;;
56343;SDS011;42245;42.058;24.700;2023-03-14T17:13:20;8.30;;;2.53;;
56343;SDS011;42245;42.058;24.700;2023-03-14T17:15:56;5.72;;;2.60;;
56343;SDS011;42245;42.058;24.700;2023-03-14T17:18:23;6.28;;;3.25;;
56343;SDS011;42245;42.058;24.700;2023-03-14T17:20:53;5.97;;;3.30;;
56343;SDS011;42245;42.058;24.700;2023-03-14T17:23:21;8.75;;;3.38;;
56343;SDS011;42245;42.058;24.700;2023-03-14T17:25:48;7.32;;;3.75;;
56343;SDS011;42245;42.058;24.700;2023-03-14T17:28:15;10.10;;;3.70;;
56343;SDS011;42245;42.058;24.700;2023-03-14T17:30:41;3.83;;;2.75;;
56343;SDS011;42245;42.058;24.700;2023-03-14T17:33:06;6.97;;;2.83;;
56343;SDS011;42245;42.058;24.700;2023-03-14T17:35:32;9.00;;;3.75;;
56343;SDS011;42245;42.058;24.700;2023-03-14T17:37:57;4.68;;;3.10;;
56343;SDS011;42245;42.058;24.700;2023-03-14T17:40:23;5.53;;;2.90;;
56343;SDS011;42245;42.058;24.700;2023-03-14T17:42:48;18.10;;;3.03;;
56343;SDS011;42245;42.058;24.700;2023-03-14T17:45:14;9.02;;;2.90;;
56343;SDS011;42245;42.058;24.700;2023-03-14T17:47:39;6.65;;;3.00;;
56343;SDS011;42245;42.058;24.700;2023-03-14T17:50:05;4.90;;;2.60;;
56343;SDS011;42245;42.058;24.700;2023-03-14T17:52:31;4.97;;;2.83;;
56343;SDS011;42245;42.058;24.700;2023-03-14T17:54:57;4.43;;;2.92;;
56343;SDS011;42245;42.058;24.700;2023-03-14T17:57:23;5.18;;;2.78;;
56343;SDS011;42245;42.058;24.700;2023-03-14T17:59:48;8.27;;;3.00;;
56343;SDS011;42245;42.058;24.700;2023-03-14T18:02:14;9.27;;;3.17;;
56343;SDS011;42245;42.058;24.700;2023-03-14T18:04:39;7.93;;;3.28;;
56343;SDS011;42245;42.058;24.700;2023-03-14T18:07:05;5.18;;;2.70;;
56343;SDS011;42245;42.058;24.700;2023-03-14T18:09:30;10.82;;;2.88;;
56343;SDS011;42245;42.058;24.700;2023-03-14T18:11:56;5.18;;;2.67;;
56343;SDS011;42245;42.058;24.700;2023-03-14T18:14:26;4.88;;;2.50;;
56343;SDS011;42245;42.058;24.700;2023-03-14T18:16:52;5.75;;;2.88;;
56343;SDS011;42245;42.058;24.700;2023-03-14T18:19:18;4.85;;;2.70;;
56343;SDS011;42245;42.058;24.700;2023-03-14T18:21:44;5.90;;;2.80;;
56343;SDS011;42245;42.058;24.700;2023-03-14T18:24:11;7.78;;;2.88;;
56343;SDS011;42245;42.058;24.700;2023-03-14T18:26:36;4.75;;;2.80;;
56343;SDS011;42245;42.058;24.700;2023-03-14T18:29:02;5.28;;;2.78;;
56343;SDS011;42245;42.058;24.700;2023-03-14T18:31:28;6.90;;;2.90;;
56343;SDS011;42245;42.058;24.700;2023-03-14T18:33:54;4.20;;;2.63;;
56343;SDS011;42245;42.058;24.700;2023-03-14T18:36:21;5.70;;;2.88;;
56343;SDS011;42245;42.058;24.700;2023-03-14T18:38:47;6.25;;;2.70;;
56343;SDS011;42245;42.058;24.700;2023-03-14T18:41:15;7.82;;;3.00;;
56343;SDS011;42245;42.058;24.700;2023-03-14T18:43:43;5.55;;;3.00;;
56343;SDS011;42245;42.058;24.700;2023-03-14T18:46:11;5.63;;;2.87;;
56343;SDS011;42245;42.058;24.700;2023-03-14T18:48:37;4.07;;;2.55;;
56343;SDS011;42245;42.058;24.700;2023-03-14T18:51:09;4.63;;;3.17;;
56343;SDS011;42245;42.058;24.700;2023-03-14T18:53:36;5.00;;;2.90;;
56343;SDS011;42245;42.058;24.700;2023-03-14T18:56:02;4.57;;;3.03;;
56343;SDS011;42245;42.058;24.700;2023-03-14T18:58:28;5.65;;;2.97;;
56343;SDS011;42245;42.058;24.700;2023-03-14T19:00:57;9.40;;;3.47;;
56343;SDS011;42245;42.058;24.700;2023-03-14T19:03:25;6.57;;;3.40;;
56343;SDS011;42245;42.058;24.700;2023-03-14T19:05:51;5.65;;;3.53;;
56343;SDS011;42245;42.058;24.700;2023-03-14T19:08:17;5.93;;;3.57;;
56343;SDS011;42245;42.058;24.700;2023-03-14T19:10:43;4.50;;;3.05;;
56343;SDS011;42245;42.058;24.700;2023-03-14T19:13:08;8.80;;;3.10;;
56343;SDS011;42245;42.058;24.700;2023-03-14T19:15:34;6.47;;;3.13;;
56343;SDS011;42245;42.058;24.700;2023-03-14T19:18:00;5.20;;;3.30;;
56343;SDS011;42245;42.058;24.700;2023-03-14T19:20:25;7.57;;;3.40;;
56343;SDS011;42245;42.058;24.700;2023-03-14T19:22:51;5.75;;;3.60;;
56343;SDS011;42245;42.058;24.700;2023-03-14T19:25:16;8.63;;;3.37;;
56343;SDS011;42245;42.058;24.700;2023-03-14T19:27:41;5.57;;;3.27;;
56343;SDS011;42245;42.058;24.700;2023-03-14T19:30:07;9.02;;;3.63;;
56343;SDS011;42245;42.058;24.700;2023-03-14T19:32:33;6.23;;;3.13;;
56343;SDS011;42245;42.058;24.700;2023-03-14T19:34:58;6.73;;;3.17;;
56343;SDS011;42245;42.058;24.700;2023-03-14T19:37:23;5.17;;;2.93;;
56343;SDS011;42245;42.058;24.700;2023-03-14T19:39:50;8.67;;;3.47;;
56343;SDS011;42245;42.058;24.700;2023-03-14T19:42:15;7.47;;;3.23;;
56343;SDS011;42245;42.058;24.700;2023-03-14T19:44:41;6.33;;;3.07;;
56343;SDS011;42245;42.058;24.700;2023-03-14T19:47:06;7.30;;;3.47;;
56343;SDS011;42245;42.058;24.700;2023-03-14T19:49:31;8.43;;;3.30;;
56343;SDS011;42245;42.058;24.700;2023-03-14T19:51:57;7.87;;;3.57;;
56343;SDS011;42245;42.058;24.700;2023-03-14T19:54:22;5.87;;;3.43;;
56343;SDS011;42245;42.058;24.700;2023-03-14T19:56:48;6.90;;;3.33;;
56343;SDS011;42245;42.058;24.700;2023-03-14T19:59:15;6.73;;;3.97;;
56343;SDS011;42245;42.058;24.700;2023-03-14T20:01:41;10.60;;;3.57;;
56343;SDS011;42245;42.058;24.700;2023-03-14T20:04:10;7.63;;;3.70;;
56343;SDS011;42245;42.058;24.700;2023-03-14T20:06:38;7.83;;;3.57;;
56343;SDS011;42245;42.058;24.700;2023-03-14T20:09:06;10.50;;;3.67;;
56343;SDS011;42245;42.058;24.700;2023-03-14T20:11:34;9.17;;;3.90;;
56343;SDS011;42245;42.058;24.700;2023-03-14T20:14:04;10.30;;;3.70;;
56343;SDS011;42245;42.058;24.700;2023-03-14T20:16:30;6.23;;;3.37;;
56343;SDS011;42245;42.058;24.700;2023-03-14T20:18:59;9.60;;;3.60;;
56343;SDS011;42245;42.058;24.700;2023-03-14T20:21:25;8.27;;;3.57;;
56343;SDS011;42245;42.058;24.700;2023-03-14T20:23:50;8.50;;;4.03;;
56343;SDS011;42245;42.058;24.700;2023-03-14T20:26:16;5.50;;;3.70;;
56343;SDS011;42245;42.058;24.700;2023-03-14T20:28:41;6.67;;;3.83;;
56343;SDS011;42245;42.058;24.700;2023-03-14T20:31:08;5.37;;;3.10;;
56343;SDS011;42245;42.058;24.700;2023-03-14T20:33:34;8.50;;;4.20;;
56343;SDS011;42245;42.058;24.700;2023-03-14T20:35:59;7.67;;;3.77;;
56343;SDS011;42245;42.058;24.700;2023-03-14T20:38:25;6.90;;;3.67;;
56343;SDS011;42245;42.058;24.700;2023-03-14T20:40:55;10.07;;;3.90;;
56343;SDS011;42245;42.058;24.700;2023-03-14T20:43:21;9.93;;;4.17;;
56343;SDS011;42245;42.058;24.700;2023-03-14T20:45:50;8.77;;;4.20;;
56343;SDS011;42245;42.058;24.700;2023-03-14T20:48:17;7.30;;;3.90;;
56343;SDS011;42245;42.058;24.700;2023-03-14T20:50:42;7.70;;;4.43;;
56343;SDS011;42245;42.058;24.700;2023-03-14T20:53:10;8.43;;;4.47;;
56343;SDS011;42245;42.058;24.700;2023-03-14T20:55:35;5.30;;;3.97;;
56343;SDS011;42245;42.058;24.700;2023-03-14T20:58:01;5.50;;;4.20;;
56343;SDS011;42245;42.058;24.700;2023-03-14T21:00:26;11.50;;;4.20;;
56343;SDS011;42245;42.058;24.700;2023-03-14T21:02:52;12.17;;;5.50;;
56343;SDS011;42245;42.058;24.700;2023-03-14T21:05:18;8.07;;;5.10;;
56343;SDS011;42245;42.058;24.700;2023-03-14T21:07:44;11.47;;;4.83;;